createdAt,value
2019-05-22T00:01:42.962Z,17.42
2019-05-22T00:04:15.261Z,18.60
2019-05-22T00:06:43.890Z,18.52
2019-05-22T00:09:18.829Z,20.43
2019-05-22T00:11:48.508Z,20.15
2019-05-22T00:14:27.395Z,20.10
2019-05-22T00:16:56.518Z,20.05
2019-05-22T00:19:24.093Z,20.92
2019-05-22T00:22:00.304Z,20.50
2019-05-22T00:24:29.125Z,20.20
2019-05-22T00:26:57.575Z,21.33
2019-05-22T00:29:25.835Z,20.40
2019-05-22T00:31:54.262Z,21.05
2019-05-22T00:34:23.551Z,19.70
2019-05-22T00:37:11.065Z,22.07
2019-05-22T00:39:40.080Z,22.40
2019-05-22T00:42:09.093Z,22.42
2019-05-22T00:44:37.578Z,20.43
2019-05-22T00:47:08.098Z,21.45
2019-05-22T00:49:35.558Z,20.45
2019-05-22T00:52:22.569Z,21.17
2019-05-22T00:54:56.396Z,21.68
2019-05-22T00:57:42.834Z,19.73
2019-05-22T01:00:21.398Z,20.92
2019-05-22T01:02:50.188Z,20.27
2019-05-22T01:05:20.684Z,20.12
2019-05-22T01:07:50.012Z,20.97
2019-05-22T01:10:17.485Z,21.33
2019-05-22T01:12:46.762Z,21.33
2019-05-22T01:15:20.157Z,18.95
2019-05-22T01:17:49.914Z,18.73
2019-05-22T01:20:21.747Z,19.27
2019-05-22T01:22:49.225Z,20.25
2019-05-22T01:25:21.508Z,20.25
2019-05-22T01:27:49.268Z,20.43
2019-05-22T01:30:40.274Z,20.75
2019-05-22T01:33:11.272Z,21.30
2019-05-22T01:35:43.777Z,18.65
2019-05-22T01:38:12.083Z,20.97
2019-05-22T01:40:47.485Z,20.23
2019-05-22T01:43:17.252Z,18.48
2019-05-22T01:45:52.135Z,20.30
2019-05-22T01:48:23.804Z,19.80
2019-05-22T01:50:57.568Z,21.65
2019-05-22T01:53:28.984Z,21.05
2019-05-22T01:55:58.360Z,20.50
2019-05-22T01:58:27.432Z,18.65
2019-05-22T02:00:55.187Z,19.95
2019-05-22T02:03:24.680Z,19.95
2019-05-22T02:05:53.781Z,20.52
2019-05-22T02:08:22.406Z,20.25
2019-05-22T02:10:51.204Z,20.92
2019-05-22T02:13:26.016Z,19.42
2019-05-22T02:15:55.218Z,19.50
2019-05-22T02:18:24.468Z,21.20
2019-05-22T02:20:52.054Z,19.90
2019-05-22T02:23:22.477Z,20.48
2019-05-22T02:25:51.533Z,20.57
2019-05-22T02:28:21.282Z,19.37
2019-05-22T02:30:48.950Z,20.60
2019-05-22T02:33:18.060Z,20.10
2019-05-22T02:35:45.868Z,20.23
2019-05-22T02:38:13.423Z,18.77
2019-05-22T02:40:42.934Z,21.23
2019-05-22T02:43:12.271Z,19.37
2019-05-22T02:45:40.724Z,19.87
2019-05-22T02:48:10.056Z,21.42
2019-05-22T02:50:38.732Z,18.98
2019-05-22T02:53:09.887Z,17.15
2019-05-22T02:55:39.070Z,18.95
2019-05-22T02:58:07.167Z,19.60
2019-05-22T03:01:07.289Z,19.98
2019-05-22T03:03:36.106Z,20.30
2019-05-22T03:06:09.555Z,21.25
2019-05-22T03:09:07.425Z,21.70
2019-05-22T03:11:39.013Z,21.75
2019-05-22T03:14:06.811Z,23.70
2019-05-22T03:16:47.804Z,22.37
2019-05-22T03:19:22.211Z,22.90
2019-05-22T03:21:51.821Z,21.75
2019-05-22T03:24:19.620Z,22.58
2019-05-22T03:26:47.977Z,21.23
2019-05-22T03:29:16.153Z,21.35
2019-05-22T03:31:44.506Z,20.15
2019-05-22T03:34:12.867Z,21.20
2019-05-22T03:36:40.793Z,20.72
2019-05-22T03:39:10.362Z,22.52
2019-05-22T03:41:38.836Z,20.43
2019-05-22T03:44:06.895Z,20.15
2019-05-22T03:46:37.692Z,19.62
2019-05-22T03:49:05.310Z,20.23
2019-05-22T03:51:33.404Z,20.40
2019-05-22T03:54:01.467Z,20.80
2019-05-22T03:56:30.546Z,19.67
2019-05-22T03:58:58.802Z,20.37
2019-05-22T04:01:27.289Z,19.95
2019-05-22T04:03:54.969Z,21.33
2019-05-22T04:06:25.408Z,21.65
2019-05-22T04:08:53.588Z,22.58
2019-05-22T04:11:27.144Z,23.50
2019-05-22T04:13:54.922Z,22.45
2019-05-22T04:16:24.125Z,24.37
2019-05-22T04:18:52.913Z,24.27
2019-05-22T04:21:20.469Z,23.20
2019-05-22T04:23:48.655Z,24.55
2019-05-22T04:26:18.189Z,23.80
2019-05-22T04:28:47.539Z,24.32
2019-05-22T04:31:15.744Z,24.70
2019-05-22T04:33:44.062Z,24.55
2019-05-22T04:36:13.151Z,23.40
2019-05-22T04:38:40.818Z,25.05
2019-05-22T04:41:08.381Z,24.12
2019-05-22T04:43:36.125Z,23.60
2019-05-22T04:46:07.698Z,23.38
2019-05-22T04:48:37.088Z,23.77
2019-05-22T04:51:26.437Z,22.90
2019-05-22T04:53:55.001Z,22.37
2019-05-22T04:56:22.934Z,23.98
2019-05-22T04:58:52.184Z,23.40
2019-05-22T05:01:20.627Z,22.93
2019-05-22T05:03:49.344Z,24.35
2019-05-22T05:06:18.567Z,23.07
2019-05-22T05:08:46.471Z,21.40
2019-05-22T05:11:14.131Z,21.90
2019-05-22T05:13:42.069Z,22.10
2019-05-22T05:16:09.598Z,22.25
2019-05-22T05:18:37.428Z,20.95
2019-05-22T05:21:05.217Z,22.30
2019-05-22T05:23:32.796Z,20.55
2019-05-22T05:26:00.508Z,22.13
2019-05-22T05:28:28.314Z,22.67
2019-05-22T05:30:56.180Z,22.65
2019-05-22T05:33:24.692Z,22.07
2019-05-22T05:35:52.783Z,22.67
2019-05-22T05:38:31.106Z,22.37
2019-05-22T05:40:58.632Z,21.90
2019-05-22T05:43:26.343Z,22.77
2019-05-22T05:45:53.930Z,22.75
2019-05-22T05:48:22.003Z,23.10
2019-05-22T05:51:26.875Z,23.12
2019-05-22T05:54:08.119Z,21.35
2019-05-22T05:56:38.527Z,21.48
2019-05-22T05:59:07.021Z,23.05
2019-05-22T06:01:44.241Z,21.95
2019-05-22T06:04:12.810Z,21.75
2019-05-22T06:07:19.512Z,20.57
2019-05-22T06:09:56.639Z,20.23
2019-05-22T06:12:24.608Z,19.95
2019-05-22T06:14:53.581Z,19.82
2019-05-22T06:18:13.749Z,20.15
2019-05-22T06:20:41.674Z,19.42
2019-05-22T06:23:51.793Z,19.50
2019-05-22T06:26:51.575Z,18.23
2019-05-22T06:29:21.355Z,18.10
2019-05-22T06:32:43.277Z,17.48
2019-05-22T06:35:12.513Z,16.85
2019-05-22T06:37:49.047Z,18.27
2019-05-22T06:40:17.963Z,18.70
2019-05-22T06:43:02.997Z,17.87
2019-05-22T06:45:30.501Z,19.57
2019-05-22T06:47:57.989Z,19.55
2019-05-22T06:50:25.597Z,19.57
2019-05-22T06:53:09.014Z,18.87
2019-05-22T06:55:22.921Z,17.98
2019-05-22T06:57:50.602Z,18.62
2019-05-22T07:00:21.568Z,17.10
2019-05-22T07:02:49.289Z,18.30
2019-05-22T07:05:16.923Z,16.48
2019-05-22T07:07:44.860Z,17.23
2019-05-22T07:10:13.024Z,14.90
2019-05-22T07:12:42.420Z,17.50
2019-05-22T07:15:43.479Z,17.02
2019-05-22T07:18:13.526Z,17.27
2019-05-22T07:20:42.081Z,13.95
2019-05-22T07:23:16.281Z,16.48
2019-05-22T07:25:46.725Z,15.32
2019-05-22T07:28:17.471Z,15.40
2019-05-22T07:30:46.121Z,16.23
2019-05-22T07:33:14.196Z,15.78
2019-05-22T07:36:04.855Z,15.32
2019-05-22T07:38:12.864Z,15.38
2019-05-22T07:40:40.525Z,16.40
2019-05-22T07:43:08.563Z,14.93
2019-05-22T07:45:36.792Z,12.43
2019-05-22T07:48:06.353Z,14.47
2019-05-22T07:50:35.977Z,14.58
2019-05-22T07:53:04.103Z,13.68
2019-05-22T07:55:32.488Z,12.78
2019-05-22T07:58:12.523Z,14.65
2019-05-22T08:00:44.861Z,14.15
2019-05-22T08:03:12.638Z,12.50
2019-05-22T08:05:43.938Z,14.05
2019-05-22T08:08:14.293Z,12.70
2019-05-22T08:10:42.013Z,13.05
2019-05-22T08:13:10.827Z,12.68
2019-05-22T08:15:38.600Z,11.83
2019-05-22T08:18:06.703Z,10.93
2019-05-22T08:20:34.288Z,9.93
2019-05-22T08:23:02.485Z,9.48
2019-05-22T08:25:29.979Z,10.40
2019-05-22T08:27:58.505Z,10.03
2019-05-22T08:30:26.297Z,11.12
2019-05-22T08:32:55.083Z,10.00
2019-05-22T08:35:23.271Z,11.12
2019-05-22T08:37:51.166Z,9.83
2019-05-22T08:40:19.598Z,9.40
2019-05-22T08:42:49.031Z,10.82
2019-05-22T08:45:18.248Z,9.95
2019-05-22T08:47:45.968Z,9.90
2019-05-22T08:50:18.761Z,9.50
2019-05-22T08:52:47.657Z,10.60
2019-05-22T08:55:15.883Z,10.10
2019-05-22T08:57:44.075Z,10.15
2019-05-22T09:00:13.823Z,10.25
2019-05-22T09:02:41.356Z,9.70
2019-05-22T09:05:09.759Z,9.40
2019-05-22T09:07:38.201Z,9.35
2019-05-22T09:10:06.057Z,9.00
2019-05-22T09:12:33.903Z,8.65
2019-05-22T09:15:01.564Z,8.85
2019-05-22T09:17:29.212Z,7.67
2019-05-22T09:19:57.112Z,9.08
2019-05-22T09:22:39.565Z,8.00
2019-05-22T09:24:54.892Z,7.58
2019-05-22T09:27:22.697Z,8.13
2019-05-22T09:29:50.308Z,8.10
2019-05-22T09:32:17.878Z,7.80
2019-05-22T09:34:45.905Z,8.38
2019-05-22T09:37:13.436Z,7.58
2019-05-22T09:39:41.072Z,7.12
2019-05-22T09:42:09.008Z,6.90
2019-05-22T09:44:36.848Z,8.40
2019-05-22T09:47:04.769Z,5.75
2019-05-22T09:49:32.401Z,5.50
2019-05-22T09:52:00.377Z,6.83
2019-05-22T09:54:27.945Z,6.30
2019-05-22T09:56:55.465Z,6.15
2019-05-22T09:59:23.212Z,6.58
2019-05-22T10:01:51.250Z,5.65
2019-05-22T10:04:18.751Z,6.45
2019-05-22T10:06:46.311Z,6.17
2019-05-22T10:09:13.875Z,5.92
2019-05-22T10:11:41.427Z,5.50
2019-05-22T10:14:09.033Z,5.62
2019-05-22T10:16:36.969Z,5.30
2019-05-22T10:19:05.895Z,5.35
2019-05-22T10:21:33.645Z,6.05
2019-05-22T10:24:01.175Z,5.70
2019-05-22T10:26:29.286Z,5.03
2019-05-22T10:28:57.234Z,5.40
2019-05-22T10:31:25.287Z,4.90
2019-05-22T10:33:52.817Z,5.17
2019-05-22T10:36:20.645Z,5.95
2019-05-22T10:38:48.157Z,5.15
2019-05-22T10:41:16.134Z,4.47
2019-05-22T10:43:44.288Z,4.25
2019-05-22T10:46:12.820Z,4.17
2019-05-22T10:48:40.911Z,4.35
2019-05-22T10:51:09.012Z,4.20
2019-05-22T10:53:37.651Z,4.17
2019-05-22T10:56:05.241Z,4.62
2019-05-22T10:58:32.809Z,4.30
2019-05-22T11:01:00.380Z,4.17
2019-05-22T11:03:29.102Z,4.00
2019-05-22T11:06:06.926Z,4.33
2019-05-22T11:08:31.873Z,4.20
2019-05-22T11:11:11.344Z,4.37
2019-05-22T11:13:39.909Z,4.03
2019-05-22T11:16:07.796Z,3.52
2019-05-22T11:18:35.359Z,3.52
2019-05-22T11:21:03.054Z,4.12
2019-05-22T11:23:31.695Z,4.33
2019-05-22T11:25:59.333Z,4.47
2019-05-22T11:28:28.115Z,4.45
2019-05-22T11:30:56.056Z,4.47
2019-05-22T11:33:23.943Z,4.33
2019-05-22T11:35:51.937Z,3.80
2019-05-22T11:38:19.467Z,4.42
2019-05-22T11:40:46.972Z,3.85
2019-05-22T11:43:15.147Z,4.72
2019-05-22T11:45:45.112Z,3.87
2019-05-22T11:48:12.247Z,3.80
2019-05-22T11:50:40.744Z,3.25
2019-05-22T11:53:08.799Z,3.50
2019-05-22T11:55:45.035Z,3.87
2019-05-22T11:58:06.874Z,3.40
2019-05-22T12:00:35.291Z,3.05
2019-05-22T12:03:03.864Z,3.00
2019-05-22T12:05:31.716Z,2.75
2019-05-22T12:07:59.429Z,2.85
2019-05-22T12:10:27.501Z,2.80
2019-05-22T12:12:55.516Z,3.20
2019-05-22T12:15:26.583Z,3.30
2019-05-22T12:17:55.095Z,3.08
2019-05-22T12:20:23.691Z,3.25
2019-05-22T12:22:51.309Z,3.15
2019-05-22T12:25:19.155Z,2.72
2019-05-22T12:27:46.769Z,3.17
2019-05-22T12:30:15.498Z,3.33
2019-05-22T12:32:43.397Z,3.27
2019-05-22T12:35:13.314Z,3.42
2019-05-22T12:37:41.499Z,3.77
2019-05-22T12:40:11.281Z,3.25
2019-05-22T12:42:39.243Z,3.17
2019-05-22T12:45:09.013Z,3.62
2019-05-22T12:47:37.199Z,3.22
2019-05-22T12:50:05.516Z,4.00
2019-05-22T12:52:33.333Z,3.67
2019-05-22T12:55:02.280Z,4.08
2019-05-22T12:57:30.463Z,3.58
2019-05-22T13:00:02.059Z,3.50
2019-05-22T13:02:27.678Z,3.92
2019-05-22T13:04:57.013Z,3.90
2019-05-22T13:07:24.951Z,4.35
2019-05-22T13:09:53.666Z,4.30
2019-05-22T13:12:21.466Z,3.72
2019-05-22T13:14:49.093Z,4.00
2019-05-22T13:17:19.038Z,3.83
2019-05-22T13:19:48.701Z,4.20
2019-05-22T13:22:18.358Z,4.62
2019-05-22T13:24:46.739Z,4.05
2019-05-22T13:27:17.045Z,4.00
2019-05-22T13:29:45.342Z,4.08
2019-05-22T13:32:14.197Z,4.03
2019-05-22T13:34:42.234Z,3.50
2019-05-22T13:37:10.238Z,4.15
2019-05-22T13:39:37.743Z,3.55
2019-05-22T13:42:05.987Z,4.50
2019-05-22T13:44:33.914Z,4.30
2019-05-22T13:47:01.886Z,4.15
2019-05-22T13:49:31.778Z,4.28
2019-05-22T13:51:59.950Z,3.65
2019-05-22T13:54:27.869Z,5.17
2019-05-22T13:56:56.443Z,4.80
2019-05-22T13:59:24.197Z,4.75
2019-05-22T14:01:52.335Z,4.70
2019-05-22T14:04:20.434Z,4.22
2019-05-22T14:06:48.752Z,4.62
2019-05-22T14:09:21.172Z,5.05
2019-05-22T14:11:47.979Z,5.10
2019-05-22T14:14:15.850Z,5.05
2019-05-22T14:16:48.580Z,5.45
2019-05-22T14:19:13.105Z,5.97
2019-05-22T14:21:40.649Z,5.70
2019-05-22T14:24:08.679Z,5.60
2019-05-22T14:26:36.491Z,6.00
2019-05-22T14:29:05.089Z,5.90
2019-05-22T14:31:32.581Z,6.47
2019-05-22T14:34:00.474Z,7.55
2019-05-22T14:36:28.466Z,7.20
2019-05-22T14:38:56.465Z,7.05
2019-05-22T14:41:24.407Z,6.70
2019-05-22T14:43:52.006Z,7.53
2019-05-22T14:46:19.582Z,7.50
2019-05-22T14:48:47.383Z,7.80
2019-05-22T14:51:16.048Z,7.03
2019-05-22T14:53:43.954Z,7.42
2019-05-22T14:56:11.739Z,8.05
2019-05-22T14:58:41.046Z,6.70
2019-05-22T15:01:09.135Z,7.25
2019-05-22T15:03:36.754Z,7.90
2019-05-22T15:06:04.360Z,8.05
2019-05-22T15:08:32.143Z,7.33
2019-05-22T15:10:59.872Z,6.37
2019-05-22T15:13:27.602Z,7.45
2019-05-22T15:15:55.377Z,7.03
2019-05-22T15:18:22.880Z,6.62
2019-05-22T15:20:56.025Z,6.20
2019-05-22T15:23:23.571Z,7.20
2019-05-22T15:25:51.966Z,6.00
2019-05-22T15:28:19.707Z,6.47
2019-05-22T15:30:47.235Z,7.62
2019-05-22T15:33:15.187Z,7.78
2019-05-22T15:35:43.281Z,7.25
2019-05-22T15:38:11.925Z,7.28
2019-05-22T15:40:40.152Z,7.37
2019-05-22T15:43:09.783Z,6.97
2019-05-22T15:45:39.701Z,7.45
2019-05-22T15:48:11.481Z,7.00
2019-05-22T15:50:42.620Z,7.67
2019-05-22T15:53:15.053Z,8.10
2019-05-22T15:55:41.253Z,7.05
2019-05-22T15:58:09.909Z,6.95
2019-05-22T16:00:40.535Z,7.25
2019-05-22T16:03:11.289Z,7.40
2019-05-22T16:05:39.749Z,7.37
2019-05-22T16:08:08.176Z,7.00
2019-05-22T16:10:37.406Z,7.10
2019-05-22T16:13:05.285Z,7.05
2019-05-22T16:15:36.018Z,7.80
2019-05-22T16:18:11.662Z,6.65
2019-05-22T16:20:36.745Z,6.60
2019-05-22T16:23:05.088Z,6.55
2019-05-22T16:25:32.862Z,6.47
2019-05-22T16:28:01.258Z,6.72
2019-05-22T16:30:29.165Z,7.35
2019-05-22T16:32:57.558Z,6.58
2019-05-22T16:35:26.031Z,6.22
2019-05-22T16:37:55.997Z,6.25
2019-05-22T16:40:23.504Z,5.65
2019-05-22T16:42:51.686Z,5.97
2019-05-22T16:45:38.752Z,6.70
2019-05-22T16:48:07.352Z,6.53
2019-05-22T16:50:35.812Z,6.28
2019-05-22T16:53:07.575Z,5.95
2019-05-22T16:55:36.270Z,6.87
2019-05-22T16:58:04.148Z,5.97
2019-05-22T17:00:32.290Z,5.90
2019-05-22T17:03:01.172Z,6.00
2019-05-22T17:05:29.178Z,7.03
2019-05-22T17:07:57.659Z,6.60
2019-05-22T17:10:26.723Z,6.83
2019-05-22T17:12:54.736Z,6.15
2019-05-22T17:15:23.124Z,6.42
2019-05-22T17:17:52.229Z,6.85
2019-05-22T17:20:21.816Z,6.58
2019-05-22T17:22:49.622Z,7.25
2019-05-22T17:25:18.917Z,7.58
2019-05-22T17:27:48.606Z,7.05
2019-05-22T17:30:20.759Z,7.83
2019-05-22T17:32:48.296Z,7.72
2019-05-22T17:35:17.904Z,7.97
2019-05-22T17:37:46.158Z,6.95
2019-05-22T17:40:16.580Z,7.37
2019-05-22T17:42:46.015Z,7.53
2019-05-22T17:45:16.502Z,7.83
2019-05-22T17:47:45.008Z,7.45
2019-05-22T17:50:25.890Z,7.55
2019-05-22T17:52:45.117Z,7.87
2019-05-22T17:55:13.489Z,10.40
2019-05-22T17:57:41.051Z,9.25
2019-05-22T18:00:16.963Z,7.87
2019-05-22T18:02:44.752Z,8.05
2019-05-22T18:05:12.920Z,8.60
2019-05-22T18:07:41.124Z,8.35
2019-05-22T18:10:09.660Z,8.18
2019-05-22T18:12:37.902Z,8.55
2019-05-22T18:15:07.157Z,8.90
2019-05-22T18:17:35.414Z,9.18
2019-05-22T18:20:03.661Z,8.53
2019-05-22T18:22:31.337Z,8.48
2019-05-22T18:24:58.846Z,8.48
2019-05-22T18:27:27.003Z,8.10
2019-05-22T18:29:54.642Z,8.65
2019-05-22T18:32:22.350Z,8.65
2019-05-22T18:34:49.895Z,8.35
2019-05-22T18:37:17.383Z,8.05
2019-05-22T18:39:45.096Z,9.00
2019-05-22T18:42:12.761Z,8.23
2019-05-22T18:44:40.249Z,8.75
2019-05-22T18:47:09.571Z,8.30
2019-05-22T18:49:37.109Z,8.33
2019-05-22T18:52:05.512Z,9.65
2019-05-22T18:54:33.103Z,8.00
2019-05-22T18:57:00.833Z,7.97
2019-05-22T18:59:28.569Z,9.05
2019-05-22T19:01:56.339Z,8.78
2019-05-22T19:04:24.551Z,8.88
2019-05-22T19:06:55.784Z,8.75
2019-05-22T19:09:22.221Z,9.30
2019-05-22T19:11:49.722Z,10.05
2019-05-22T19:14:17.586Z,9.48
2019-05-22T19:16:56.742Z,9.28
2019-05-22T19:19:28.225Z,10.15
2019-05-22T19:21:54.062Z,9.90
2019-05-22T19:24:21.618Z,10.88
2019-05-22T19:26:50.119Z,10.20
2019-05-22T19:29:17.715Z,10.50
2019-05-22T19:31:45.221Z,9.95
2019-05-22T19:34:13.188Z,11.10
2019-05-22T19:36:40.683Z,10.45
2019-05-22T19:39:09.375Z,11.18
2019-05-22T19:44:27.119Z,11.55
2019-05-22T19:46:55.400Z,12.10
2019-05-22T19:49:23.336Z,11.55
2019-05-22T19:51:51.519Z,11.85
2019-05-22T19:54:19.512Z,11.38
2019-05-22T19:56:47.159Z,11.22
2019-05-22T19:59:15.269Z,10.43
2019-05-22T20:01:43.025Z,11.25
2019-05-22T20:04:11.330Z,10.20
2019-05-22T20:06:38.840Z,11.57
2019-05-22T20:09:08.801Z,10.75
2019-05-22T20:11:36.615Z,10.95
2019-05-22T20:14:04.531Z,11.73
2019-05-22T20:16:32.113Z,11.83
2019-05-22T20:18:59.893Z,10.68
2019-05-22T20:21:28.019Z,10.93
2019-05-22T20:23:55.560Z,11.30
2019-05-22T20:26:23.175Z,11.53
2019-05-22T20:28:50.630Z,11.40
2019-05-22T20:31:18.252Z,11.28
2019-05-22T20:33:45.755Z,10.82
2019-05-22T20:36:13.720Z,12.03
2019-05-22T20:38:41.196Z,11.30
2019-05-22T20:41:08.675Z,10.75
2019-05-22T20:43:39.149Z,11.80
2019-05-22T20:46:07.558Z,11.55
2019-05-22T20:48:35.215Z,11.28
2019-05-22T20:51:03.800Z,12.33
2019-05-22T20:53:32.132Z,12.53
2019-05-22T20:56:00.492Z,11.78
2019-05-22T20:58:29.859Z,12.93
2019-05-22T21:00:57.803Z,12.03
2019-05-22T21:03:25.207Z,12.93
2019-05-22T21:05:53.524Z,12.63
2019-05-22T21:08:23.831Z,12.03
2019-05-22T21:10:51.791Z,12.20
2019-05-22T21:13:19.472Z,12.25
2019-05-22T21:15:47.475Z,13.85
2019-05-22T21:18:16.081Z,12.95
2019-05-22T21:20:54.110Z,12.23
2019-05-22T21:23:14.921Z,12.73
2019-05-22T21:25:42.820Z,12.88
2019-05-22T21:28:10.391Z,12.30
2019-05-22T21:30:40.121Z,12.53
2019-05-22T21:33:07.995Z,13.72
2019-05-22T21:35:35.988Z,13.48
2019-05-22T21:38:04.781Z,13.40
2019-05-22T21:40:33.086Z,14.68
2019-05-22T21:43:00.757Z,14.63
2019-05-22T21:45:29.531Z,14.33
2019-05-22T21:47:58.088Z,12.98
2019-05-22T21:50:25.747Z,13.95
2019-05-22T21:52:53.535Z,14.18
2019-05-22T21:55:23.642Z,14.70
2019-05-22T21:57:52.254Z,13.15
2019-05-22T22:00:41.173Z,13.15
2019-05-22T22:03:09.741Z,13.85
2019-05-22T22:05:38.061Z,13.28
2019-05-22T22:08:05.602Z,13.15
2019-05-22T22:10:33.272Z,13.40
2019-05-22T22:13:02.913Z,13.30
2019-05-22T22:15:30.890Z,13.13
2019-05-22T22:17:58.460Z,13.60
2019-05-22T22:20:26.215Z,13.90
2019-05-22T22:22:53.678Z,14.35
2019-05-22T22:25:23.344Z,14.68
2019-05-22T22:27:50.775Z,13.75
2019-05-22T22:30:27.071Z,15.28
2019-05-22T22:32:57.791Z,14.43
2019-05-22T22:35:25.440Z,14.18
2019-05-22T22:37:54.288Z,13.53
2019-05-22T22:40:23.304Z,14.00
2019-05-22T22:42:52.608Z,14.85
2019-05-22T22:45:28.717Z,14.73
2019-05-22T22:47:56.831Z,14.47
2019-05-22T22:50:25.069Z,14.35
2019-05-22T22:52:53.829Z,15.43
2019-05-22T22:55:23.174Z,14.35
2019-05-22T22:57:51.165Z,14.23
2019-05-22T23:00:25.091Z,14.80
2019-05-22T23:02:53.359Z,15.38
2019-05-22T23:05:21.592Z,14.53
2019-05-22T23:07:50.491Z,14.93
2019-05-22T23:10:19.780Z,14.83
2019-05-22T23:12:47.741Z,15.03
2019-05-22T23:15:18.453Z,15.50
2019-05-22T23:17:47.669Z,14.93
2019-05-22T23:20:15.927Z,14.10
2019-05-22T23:22:43.290Z,14.90
2019-05-22T23:25:10.834Z,14.30
2019-05-22T23:27:38.770Z,14.95
2019-05-22T23:30:08.806Z,14.93
2019-05-22T23:32:36.471Z,14.90
2019-05-22T23:35:05.089Z,15.47
2019-05-22T23:37:33.631Z,14.87
2019-05-22T23:40:01.471Z,14.83
2019-05-22T23:42:35.643Z,14.90
2019-05-22T23:45:06.395Z,14.23
2019-05-22T23:47:39.492Z,14.85
2019-05-22T23:50:07.660Z,14.77
2019-05-22T23:52:35.195Z,14.73
2019-05-22T23:55:03.412Z,15.80
2019-05-22T23:57:31.660Z,15.70
